sensor_id;sensor_type;location;lat;lon;timestamp;pressure;altitude;pressure_sealevel;temperature;humidity
15694;BME280;7947;48.834;9.132;2023-04-08T00:02:03;98452.94;;;9.60;87.37
15694;BME280;7947;48.834;9.132;2023-04-08T00:05:08;98456.47;;;9.65;87.77
15694;BME280;7947;48.834;9.132;2023-04-08T00:08:11;98452.97;;;9.70;87.19
15694;BME280;7947;48.834;9.132;2023-04-08T00:11:13;98455.97;;;9.73;87.50
15694;BME280;7947;48.834;9.132;2023-04-08T00:14:16;98458.88;;;9.72;86.96
15694;BME280;7947;48.834;9.132;2023-04-08T00:17:19;98459.97;;;9.76;87.31
15694;BME280;7947;48.834;9.132;2023-04-08T00:20:23;98451.94;;;9.76;86.42
15694;BME280;7947;48.834;9.132;2023-04-08T00:23:26;98456.47;;;9.70;86.44
15694;BME280;7947;48.834;9.132;2023-04-08T00:26:29;98454.34;;;9.72;86.96
15694;BME280;7947;48.834;9.132;2023-04-08T00:29:32;98456.47;;;9.65;86.49
15694;BME280;7947;48.834;9.132;2023-04-08T00:32:35;98450.03;;;9.66;86.84
15694;BME280;7947;48.834;9.132;2023-04-08T00:35:39;98459.41;;;9.64;87.07
15694;BME280;7947;48.834;9.132;2023-04-08T00:38:42;98460.16;;;9.59;86.97
15694;BME280;7947;48.834;9.132;2023-04-08T00:41:45;98463.34;;;9.56;86.42
15694;BME280;7947;48.834;9.132;2023-04-08T00:44:48;98463.66;;;9.60;86.91
15694;BME280;7947;48.834;9.132;2023-04-08T00:47:51;98466.91;;;9.67;86.58
15694;BME280;7947;48.834;9.132;2023-04-08T00:50:55;98470.66;;;9.71;86.97
15694;BME280;7947;48.834;9.132;2023-04-08T00:53:58;98473.06;;;9.67;86.33
15694;BME280;7947;48.834;9.132;2023-04-08T00:57:02;98475.00;;;9.77;85.94
15694;BME280;7947;48.834;9.132;2023-04-08T01:00:06;98465.31;;;9.76;86.13
15694;BME280;7947;48.834;9.132;2023-04-08T01:03:15;98470.97;;;9.79;85.88
15694;BME280;7947;48.834;9.132;2023-04-08T01:06:24;98476.31;;;9.74;85.72
15694;BME280;7947;48.834;9.132;2023-04-08T01:09:34;98468.81;;;9.71;85.74
15694;BME280;7947;48.834;9.132;2023-04-08T01:12:43;98469.03;;;9.65;85.41
15694;BME280;7947;48.834;9.132;2023-04-08T01:15:50;98478.16;;;9.64;85.96
15694;BME280;7947;48.834;9.132;2023-04-08T01:18:54;98466.84;;;9.57;85.72
15694;BME280;7947;48.834;9.132;2023-04-08T01:22:04;98466.00;;;9.46;86.43
15694;BME280;7947;48.834;9.132;2023-04-08T01:25:16;98466.50;;;9.43;86.89
15694;BME280;7947;48.834;9.132;2023-04-08T01:28:25;98472.19;;;9.52;86.77
15694;BME280;7947;48.834;9.132;2023-04-08T01:31:29;98465.75;;;9.53;86.89
15694;BME280;7947;48.834;9.132;2023-04-08T01:34:33;98473.78;;;9.53;86.59
15694;BME280;7947;48.834;9.132;2023-04-08T01:37:37;98465.25;;;9.56;86.41
15694;BME280;7947;48.834;9.132;2023-04-08T01:40:41;98466.81;;;9.52;86.17
15694;BME280;7947;48.834;9.132;2023-04-08T01:43:46;98460.38;;;9.53;86.60
15694;BME280;7947;48.834;9.132;2023-04-08T01:46:50;98457.69;;;9.48;87.16
15694;BME280;7947;48.834;9.132;2023-04-08T01:49:55;98460.88;;;9.45;86.99
15694;BME280;7947;48.834;9.132;2023-04-08T01:53:00;98466.00;;;9.51;86.73
15694;BME280;7947;48.834;9.132;2023-04-08T01:56:06;98461.97;;;9.49;86.99
15694;BME280;7947;48.834;9.132;2023-04-08T01:59:13;98463.81;;;9.43;87.07
15694;BME280;7947;48.834;9.132;2023-04-08T02:02:19;98465.94;;;9.41;87.25
15694;BME280;7947;48.834;9.132;2023-04-08T02:05:23;98465.69;;;9.43;87.38
15694;BME280;7947;48.834;9.132;2023-04-08T02:08:26;98462.78;;;9.49;87.17
15694;BME280;7947;48.834;9.132;2023-04-08T02:11:29;98467.31;;;9.49;87.55
15694;BME280;7947;48.834;9.132;2023-04-08T02:14:33;98473.00;;;9.52;87.28
15694;BME280;7947;48.834;9.132;2023-04-08T02:17:42;98468.91;;;9.45;87.25
15694;BME280;7947;48.834;9.132;2023-04-08T02:20:49;98468.13;;;9.49;86.85
15694;BME280;7947;48.834;9.132;2023-04-08T02:23:56;98466.78;;;9.47;86.36
15694;BME280;7947;48.834;9.132;2023-04-08T02:27:03;98468.88;;;9.40;86.72
15694;BME280;7947;48.834;9.132;2023-04-08T02:30:10;98476.09;;;9.34;86.66
15694;BME280;7947;48.834;9.132;2023-04-08T02:33:13;98476.09;;;9.34;86.33
15694;BME280;7947;48.834;9.132;2023-04-08T02:36:16;98473.63;;;9.28;86.80
15694;BME280;7947;48.834;9.132;2023-04-08T02:39:19;98470.09;;;9.22;86.88
15694;BME280;7947;48.834;9.132;2023-04-08T02:42:23;98474.63;;;9.17;87.03
15694;BME280;7947;48.834;9.132;2023-04-08T02:45:29;98474.00;;;9.04;87.09
15694;BME280;7947;48.834;9.132;2023-04-08T02:48:33;98476.16;;;9.07;87.36
15694;BME280;7947;48.834;9.132;2023-04-08T02:51:35;98463.34;;;9.09;87.22
15694;BME280;7947;48.834;9.132;2023-04-08T02:54:38;98469.75;;;9.08;87.14
15694;BME280;7947;48.834;9.132;2023-04-08T02:57:41;98475.00;;;8.98;87.36
15694;BME280;7947;48.834;9.132;2023-04-08T03:00:46;98465.38;;;8.97;87.37
15694;BME280;7947;48.834;9.132;2023-04-08T03:03:49;98474.50;;;9.01;87.87
15694;BME280;7947;48.834;9.132;2023-04-08T03:06:52;98469.47;;;9.05;87.90
15694;BME280;7947;48.834;9.132;2023-04-08T03:09:55;98474.03;;;9.09;87.64
15694;BME280;7947;48.834;9.132;2023-04-08T03:12:57;98471.66;;;9.13;86.80
15694;BME280;7947;48.834;9.132;2023-04-08T03:16:02;98471.94;;;9.17;86.47
15694;BME280;7947;48.834;9.132;2023-04-08T03:19:05;98467.59;;;9.05;87.09
15694;BME280;7947;48.834;9.132;2023-04-08T03:22:07;98471.22;;;8.94;87.13
15694;BME280;7947;48.834;9.132;2023-04-08T03:25:11;98469.34;;;8.90;87.37
15694;BME280;7947;48.834;9.132;2023-04-08T03:28:14;98474.69;;;8.90;87.59
15694;BME280;7947;48.834;9.132;2023-04-08T03:31:18;98469.75;;;8.77;88.02
15694;BME280;7947;48.834;9.132;2023-04-08T03:34:22;98478.81;;;8.71;87.96
15694;BME280;7947;48.834;9.132;2023-04-08T03:37:25;98475.59;;;8.69;88.74
15694;BME280;7947;48.834;9.132;2023-04-08T03:40:27;98482.78;;;8.68;88.56
15694;BME280;7947;48.834;9.132;2023-04-08T03:43:31;98479.09;;;8.74;88.78
15694;BME280;7947;48.834;9.132;2023-04-08T03:46:37;98487.41;;;8.78;88.57
15694;BME280;7947;48.834;9.132;2023-04-08T03:49:40;98481.31;;;8.82;88.39
15694;BME280;7947;48.834;9.132;2023-04-08T03:52:42;98485.88;;;8.87;88.42
15694;BME280;7947;48.834;9.132;2023-04-08T03:55:47;98492.00;;;8.82;88.00
15694;BME280;7947;48.834;9.132;2023-04-08T03:58:51;98486.91;;;8.81;88.28
15694;BME280;7947;48.834;9.132;2023-04-08T04:01:55;98478.13;;;8.85;88.36
15694;BME280;7947;48.834;9.132;2023-04-08T04:04:58;98482.72;;;8.90;87.84
15694;BME280;7947;48.834;9.132;2023-04-08T04:08:01;98482.75;;;8.95;88.06
15694;BME280;7947;48.834;9.132;2023-04-08T04:11:04;98489.19;;;8.99;87.63
15694;BME280;7947;48.834;9.132;2023-04-08T04:14:07;98480.34;;;8.98;87.54
15694;BME280;7947;48.834;9.132;2023-04-08T04:17:11;98491.31;;;8.97;87.54
15694;BME280;7947;48.834;9.132;2023-04-08T04:20:14;98484.59;;;8.94;87.95
15694;BME280;7947;48.834;9.132;2023-04-08T04:23:17;98480.88;;;8.95;87.50
15694;BME280;7947;48.834;9.132;2023-04-08T04:26:20;98474.97;;;8.93;87.62
15694;BME280;7947;48.834;9.132;2023-04-08T04:29:22;98473.91;;;8.94;87.45
15694;BME280;7947;48.834;9.132;2023-04-08T04:32:27;98478.16;;;8.90;87.15
15694;BME280;7947;48.834;9.132;2023-04-08T04:35:29;98484.28;;;8.86;87.55
15694;BME280;7947;48.834;9.132;2023-04-08T04:38:32;98477.28;;;8.80;87.40
15694;BME280;7947;48.834;9.132;2023-04-08T04:41:35;98482.31;;;8.76;87.80
15694;BME280;7947;48.834;9.132;2023-04-08T04:44:41;98488.63;;;8.65;87.92
15694;BME280;7947;48.834;9.132;2023-04-08T04:47:46;98485.31;;;8.53;87.53
15694;BME280;7947;48.834;9.132;2023-04-08T04:50:53;98484.13;;;8.44;87.61
15694;BME280;7947;48.834;9.132;2023-04-08T04:53:56;98492.69;;;8.41;87.22
15694;BME280;7947;48.834;9.132;2023-04-08T04:56:59;98493.41;;;8.37;86.99
15694;BME280;7947;48.834;9.132;2023-04-08T05:00:02;98497.09;;;8.31;87.03
15694;BME280;7947;48.834;9.132;2023-04-08T05:03:07;98500.56;;;8.31;85.77
15694;BME280;7947;48.834;9.132;2023-04-08T05:06:11;98518.16;;;8.27;85.64
15694;BME280;7947;48.834;9.132;2023-04-08T05:09:14;98506.09;;;8.25;86.37
15694;BME280;7947;48.834;9.132;2023-04-08T05:12:17;98513.78;;;8.21;85.72
15694;BME280;7947;48.834;9.132;2023-04-08T05:15:21;98518.56;;;8.19;85.10
15694;BME280;7947;48.834;9.132;2023-04-08T05:18:25;98513.44;;;8.12;84.74
15694;BME280;7947;48.834;9.132;2023-04-08T05:21:28;98514.44;;;8.06;85.00
15694;BME280;7947;48.834;9.132;2023-04-08T05:24:31;98524.47;;;7.99;84.41
15694;BME280;7947;48.834;9.132;2023-04-08T05:27:34;98527.59;;;7.91;84.06
15694;BME280;7947;48.834;9.132;2023-04-08T05:30:37;98534.78;;;7.91;84.03
15694;BME280;7947;48.834;9.132;2023-04-08T05:33:41;98533.66;;;7.87;84.54
15694;BME280;7947;48.834;9.132;2023-04-08T05:36:44;98529.81;;;7.78;85.19
15694;BME280;7947;48.834;9.132;2023-04-08T05:39:46;98542.97;;;7.84;86.03
15694;BME280;7947;48.834;9.132;2023-04-08T05:42:49;98546.84;;;7.93;86.97
15694;BME280;7947;48.834;9.132;2023-04-08T05:45:52;98541.16;;;7.90;86.96
15694;BME280;7947;48.834;9.132;2023-04-08T05:48:56;98547.72;;;7.99;88.00
15694;BME280;7947;48.834;9.132;2023-04-08T05:51:59;98554.22;;;8.08;89.04
15694;BME280;7947;48.834;9.132;2023-04-08T05:55:02;98541.19;;;8.11;89.39
15694;BME280;7947;48.834;9.132;2023-04-08T05:58:05;98547.56;;;8.27;90.10
15694;BME280;7947;48.834;9.132;2023-04-08T06:01:08;98550.91;;;8.39;90.53
15694;BME280;7947;48.834;9.132;2023-04-08T06:04:12;98551.06;;;8.54;90.29
15694;BME280;7947;48.834;9.132;2023-04-08T06:07:15;98558.13;;;8.65;90.24
15694;BME280;7947;48.834;9.132;2023-04-08T06:10:18;98553.97;;;8.74;90.15
15694;BME280;7947;48.834;9.132;2023-04-08T06:13:21;98553.00;;;8.85;89.32
15694;BME280;7947;48.834;9.132;2023-04-08T06:16:26;98559.19;;;8.91;88.75
15694;BME280;7947;48.834;9.132;2023-04-08T06:19:30;98563.25;;;8.93;89.23
15694;BME280;7947;48.834;9.132;2023-04-08T06:22:33;98564.34;;;8.97;88.58
15694;BME280;7947;48.834;9.132;2023-04-08T06:25:36;98567.06;;;9.02;88.29
15694;BME280;7947;48.834;9.132;2023-04-08T06:28:39;98562.53;;;9.03;88.70
15694;BME280;7947;48.834;9.132;2023-04-08T06:31:42;98568.44;;;9.05;88.63
15694;BME280;7947;48.834;9.132;2023-04-08T06:34:46;98572.25;;;9.14;88.47
15694;BME280;7947;48.834;9.132;2023-04-08T06:37:49;98578.97;;;9.17;88.45
15694;BME280;7947;48.834;9.132;2023-04-08T06:40:51;98575.84;;;9.25;88.75
15694;BME280;7947;48.834;9.132;2023-04-08T06:43:54;98578.03;;;9.33;88.23
15694;BME280;7947;48.834;9.132;2023-04-08T06:46:57;98582.88;;;9.36;88.22
15694;BME280;7947;48.834;9.132;2023-04-08T06:50:02;98590.16;;;9.40;88.16
15694;BME280;7947;48.834;9.132;2023-04-08T06:53:05;98591.00;;;9.46;87.15
15694;BME280;7947;48.834;9.132;2023-04-08T06:56:07;98589.91;;;9.47;87.33
15694;BME280;7947;48.834;9.132;2023-04-08T06:59:10;98595.78;;;9.44;86.87
15694;BME280;7947;48.834;9.132;2023-04-08T07:02:13;98589.41;;;9.50;87.14
15694;BME280;7947;48.834;9.132;2023-04-08T07:05:17;98601.22;;;9.54;86.96
15694;BME280;7947;48.834;9.132;2023-04-08T07:08:20;98595.34;;;9.57;87.25
15694;BME280;7947;48.834;9.132;2023-04-08T07:11:23;98602.09;;;9.64;86.85
15694;BME280;7947;48.834;9.132;2023-04-08T07:14:26;98595.78;;;9.80;85.91
15694;BME280;7947;48.834;9.132;2023-04-08T07:17:30;98597.47;;;9.91;86.25
15694;BME280;7947;48.834;9.132;2023-04-08T07:20:34;98606.88;;;9.99;86.63
15694;BME280;7947;48.834;9.132;2023-04-08T07:23:38;98605.31;;;10.03;83.63
15694;BME280;7947;48.834;9.132;2023-04-08T07:26:41;98616.81;;;9.98;84.23
15694;BME280;7947;48.834;9.132;2023-04-08T07:29:44;98612.25;;;9.99;84.68
15694;BME280;7947;48.834;9.132;2023-04-08T07:32:47;98599.16;;;10.02;83.56
15694;BME280;7947;48.834;9.132;2023-04-08T07:35:51;98606.13;;;10.03;84.32
15694;BME280;7947;48.834;9.132;2023-04-08T07:38:54;98608.06;;;10.13;83.20
15694;BME280;7947;48.834;9.132;2023-04-08T07:41:57;98609.50;;;10.26;82.79
15694;BME280;7947;48.834;9.132;2023-04-08T07:45:00;98607.69;;;10.46;82.02
15694;BME280;7947;48.834;9.132;2023-04-08T07:48:03;98614.75;;;10.62;81.36
15694;BME280;7947;48.834;9.132;2023-04-08T07:51:08;98610.75;;;10.75;81.51
15694;BME280;7947;48.834;9.132;2023-04-08T07:54:12;98616.16;;;10.80;80.18
15694;BME280;7947;48.834;9.132;2023-04-08T07:57:17;98612.63;;;10.74;79.84
15694;BME280;7947;48.834;9.132;2023-04-08T08:00:20;98620.16;;;10.77;79.39
15694;BME280;7947;48.834;9.132;2023-04-08T08:03:23;98624.44;;;10.73;79.50
15694;BME280;7947;48.834;9.132;2023-04-08T08:06:28;98622.03;;;10.72;79.37
15694;BME280;7947;48.834;9.132;2023-04-08T08:09:32;98628.22;;;10.77;78.56
15694;BME280;7947;48.834;9.132;2023-04-08T08:12:35;98622.84;;;10.82;78.60
15694;BME280;7947;48.834;9.132;2023-04-08T08:15:38;98629.84;;;10.88;78.44
15694;BME280;7947;48.834;9.132;2023-04-08T08:18:41;98628.25;;;10.98;77.87
15694;BME280;7947;48.834;9.132;2023-04-08T08:21:45;98632.06;;;11.17;76.80
15694;BME280;7947;48.834;9.132;2023-04-08T08:24:48;98632.06;;;11.17;77.04
15694;BME280;7947;48.834;9.132;2023-04-08T08:27:51;98640.13;;;11.17;77.59
15694;BME280;7947;48.834;9.132;2023-04-08T08:30:53;98633.69;;;11.28;76.55
15694;BME280;7947;48.834;9.132;2023-04-08T08:33:57;98639.34;;;11.41;77.14
15694;BME280;7947;48.834;9.132;2023-04-08T08:37:01;98631.28;;;11.46;75.13
15694;BME280;7947;48.834;9.132;2023-04-08T08:40:04;98634.50;;;11.63;75.24
15694;BME280;7947;48.834;9.132;2023-04-08T08:43:08;98637.50;;;11.82;74.93
15694;BME280;7947;48.834;9.132;2023-04-08T08:46:14;98638.81;;;11.95;74.46
15694;BME280;7947;48.834;9.132;2023-04-08T08:49:18;98636.69;;;12.02;71.85
15694;BME280;7947;48.834;9.132;2023-04-08T08:52:22;98639.63;;;12.00;70.36
15694;BME280;7947;48.834;9.132;2023-04-08T08:55:24;98636.69;;;12.02;70.46
15694;BME280;7947;48.834;9.132;2023-04-08T08:58:47;98639.63;;;12.15;71.68
15694;BME280;7947;48.834;9.132;2023-04-08T09:01:50;98634.16;;;12.35;69.74
15694;BME280;7947;48.834;9.132;2023-04-08T09:04:58;98653.53;;;12.42;68.62
15694;BME280;7947;48.834;9.132;2023-04-08T09:08:03;98654.28;;;12.53;69.09
15694;BME280;7947;48.834;9.132;2023-04-08T09:11:14;98651.81;;;12.66;67.97
15694;BME280;7947;48.834;9.132;2023-04-08T09:14:18;98657.94;;;12.82;67.05
15694;BME280;7947;48.834;9.132;2023-04-08T09:17:30;98660.38;;;12.79;66.76
15694;BME280;7947;48.834;9.132;2023-04-08T09:20:34;98653.66;;;12.76;65.07
15694;BME280;7947;48.834;9.132;2023-04-08T09:23:40;98655.56;;;12.70;64.49
15694;BME280;7947;48.834;9.132;2023-04-08T09:26:45;98653.41;;;12.73;64.92
15694;BME280;7947;48.834;9.132;2023-04-08T09:29:48;98655.25;;;12.82;65.29
15694;BME280;7947;48.834;9.132;2023-04-08T09:32:52;98646.31;;;12.97;64.71
15694;BME280;7947;48.834;9.132;2023-04-08T09:35:55;98654.34;;;13.07;65.38
15694;BME280;7947;48.834;9.132;2023-04-08T09:39:00;98652.75;;;13.06;62.66
15694;BME280;7947;48.834;9.132;2023-04-08T09:42:05;98659.50;;;12.93;60.89
15694;BME280;7947;48.834;9.132;2023-04-08T09:45:12;98651.19;;;12.90;59.03
15694;BME280;7947;48.834;9.132;2023-04-08T09:48:17;98650.16;;;12.81;56.95
15694;BME280;7947;48.834;9.132;2023-04-08T09:51:23;98659.28;;;12.80;58.36
15694;BME280;7947;48.834;9.132;2023-04-08T09:54:31;98657.09;;;12.97;55.30
15694;BME280;7947;48.834;9.132;2023-04-08T09:57:40;98657.41;;;13.34;56.88
15694;BME280;7947;48.834;9.132;2023-04-08T10:00:46;98658.34;;;13.58;55.68
15694;BME280;7947;48.834;9.132;2023-04-08T10:03:53;98656.06;;;13.75;54.72
15694;BME280;7947;48.834;9.132;2023-04-08T10:07:03;98653.28;;;13.85;53.24
15694;BME280;7947;48.834;9.132;2023-04-08T10:10:09;98657.78;;;13.95;51.90
15694;BME280;7947;48.834;9.132;2023-04-08T10:13:13;98659.56;;;14.04;54.63
15694;BME280;7947;48.834;9.132;2023-04-08T10:16:21;98661.22;;;14.00;53.31
15694;BME280;7947;48.834;9.132;2023-04-08T10:19:36;98662.44;;;13.84;54.44
15694;BME280;7947;48.834;9.132;2023-04-08T10:22:47;98650.34;;;13.82;52.64
15694;BME280;7947;48.834;9.132;2023-04-08T10:25:52;98652.38;;;13.61;49.31
15694;BME280;7947;48.834;9.132;2023-04-08T10:28:54;98650.03;;;13.49;51.79
15694;BME280;7947;48.834;9.132;2023-04-08T10:31:57;98652.53;;;13.41;51.54
15694;BME280;7947;48.834;9.132;2023-04-08T10:35:00;98657.50;;;13.24;52.09
15694;BME280;7947;48.834;9.132;2023-04-08T10:38:05;98660.25;;;13.09;52.71
15694;BME280;7947;48.834;9.132;2023-04-08T10:41:10;98650.66;;;12.93;53.53
15694;BME280;7947;48.834;9.132;2023-04-08T10:44:15;98651.22;;;12.85;52.64
15694;BME280;7947;48.834;9.132;2023-04-08T10:47:24;98655.03;;;12.68;52.80
15694;BME280;7947;48.834;9.132;2023-04-08T10:50:29;98654.28;;;12.53;53.15
15694;BME280;7947;48.834;9.132;2023-04-08T10:53:34;98659.44;;;12.44;53.45
15694;BME280;7947;48.834;9.132;2023-04-08T10:56:44;98654.09;;;12.34;53.10
15694;BME280;7947;48.834;9.132;2023-04-08T10:59:48;98658.94;;;12.32;55.35
15694;BME280;7947;48.834;9.132;2023-04-08T11:02:51;98650.84;;;12.27;56.02
15694;BME280;7947;48.834;9.132;2023-04-08T11:05:57;98653.03;;;12.20;55.52
15694;BME280;7947;48.834;9.132;2023-04-08T11:09:01;98655.19;;;12.18;55.28
15694;BME280;7947;48.834;9.132;2023-04-08T11:12:06;98653.84;;;12.16;55.09
15694;BME280;7947;48.834;9.132;2023-04-08T11:15:11;98654.41;;;12.08;55.36
15694;BME280;7947;48.834;9.132;2023-04-08T11:18:15;98658.97;;;12.07;55.19
15694;BME280;7947;48.834;9.132;2023-04-08T11:21:18;98654.13;;;12.04;56.66
15694;BME280;7947;48.834;9.132;2023-04-08T11:24:22;98650.06;;;12.12;55.93
15694;BME280;7947;48.834;9.132;2023-04-08T11:27:27;98649.00;;;12.18;55.84
15694;BME280;7947;48.834;9.132;2023-04-08T11:30:30;98652.47;;;12.23;54.67
15694;BME280;7947;48.834;9.132;2023-04-08T11:33:33;98648.69;;;12.29;53.49
15694;BME280;7947;48.834;9.132;2023-04-08T11:36:39;98646.00;;;12.29;54.22
15694;BME280;7947;48.834;9.132;2023-04-08T11:39:42;98651.38;;;12.29;54.52
15694;BME280;7947;48.834;9.132;2023-04-08T11:42:47;98645.22;;;12.29;55.42
15694;BME280;7947;48.834;9.132;2023-04-08T11:45:50;98646.28;;;12.28;55.71
15694;BME280;7947;48.834;9.132;2023-04-08T11:48:58;98639.03;;;12.23;55.64
15694;BME280;7947;48.834;9.132;2023-04-08T11:52:01;98640.38;;;12.26;55.62
15694;BME280;7947;48.834;9.132;2023-04-08T11:55:04;98649.28;;;12.16;55.84
15694;BME280;7947;48.834;9.132;2023-04-08T11:58:09;98642.03;;;12.17;54.86
15694;BME280;7947;48.834;9.132;2023-04-08T12:01:12;98645.25;;;12.19;54.21
15694;BME280;7947;48.834;9.132;2023-04-08T12:04:14;98644.44;;;12.13;54.97
15694;BME280;7947;48.834;9.132;2023-04-08T12:07:17;98647.69;;;12.15;55.81
15694;BME280;7947;48.834;9.132;2023-04-08T12:10:20;98650.06;;;12.12;55.78
15694;BME280;7947;48.834;9.132;2023-04-08T12:13:26;98640.94;;;12.13;57.10
15694;BME280;7947;48.834;9.132;2023-04-08T12:16:29;98648.47;;;12.16;55.63
15694;BME280;7947;48.834;9.132;2023-04-08T12:19:32;98649.81;;;12.18;55.27
15694;BME280;7947;48.834;9.132;2023-04-08T12:22:38;98651.97;;;12.21;56.61
15694;BME280;7947;48.834;9.132;2023-04-08T12:25:41;98651.44;;;12.14;55.45
15694;BME280;7947;48.834;9.132;2023-04-08T12:28:46;98658.69;;;12.14;56.87
15694;BME280;7947;48.834;9.132;2023-04-08T12:31:49;98669.44;;;12.19;56.40
15694;BME280;7947;48.834;9.132;2023-04-08T12:34:52;98653.59;;;12.17;56.24
15694;BME280;7947;48.834;9.132;2023-04-08T12:37:54;98660.56;;;12.18;55.93
15694;BME280;7947;48.834;9.132;2023-04-08T12:40:57;98661.91;;;12.21;56.12
15694;BME280;7947;48.834;9.132;2023-04-08T12:44:01;98659.75;;;12.18;56.73
15694;BME280;7947;48.834;9.132;2023-04-08T12:47:04;98657.06;;;12.18;55.80
15694;BME280;7947;48.834;9.132;2023-04-08T12:50:08;98656.53;;;12.11;55.61
15694;BME280;7947;48.834;9.132;2023-04-08T12:53:11;98651.97;;;12.06;56.15
15694;BME280;7947;48.834;9.132;2023-04-08T12:56:14;98655.50;;;12.02;56.56
15694;BME280;7947;48.834;9.132;2023-04-08T12:59:18;98655.50;;;12.02;57.05
15694;BME280;7947;48.834;9.132;2023-04-08T13:02:21;98647.44;;;12.02;56.58
15694;BME280;7947;48.834;9.132;2023-04-08T13:05:26;98646.63;;;12.01;57.44
15694;BME280;7947;48.834;9.132;2023-04-08T13:08:43;98647.94;;;12.09;57.68
15694;BME280;7947;48.834;9.132;2023-04-08T13:11:46;98655.47;;;12.12;57.06
15694;BME280;7947;48.834;9.132;2023-04-08T13:14:50;98650.91;;;12.17;55.91
15694;BME280;7947;48.834;9.132;2023-04-08T13:17:53;98651.97;;;12.16;55.74
15694;BME280;7947;48.834;9.132;2023-04-08T13:20:57;98647.09;;;12.23;57.11
15694;BME280;7947;48.834;9.132;2023-04-08T13:23:59;98651.38;;;12.29;56.72
15694;BME280;7947;48.834;9.132;2023-04-08T13:27:02;98646.28;;;12.33;56.02
15694;BME280;7947;48.834;9.132;2023-04-08T13:30:08;98648.44;;;12.36;56.44
15694;BME280;7947;48.834;9.132;2023-04-08T13:33:11;98648.41;;;12.41;57.29
15694;BME280;7947;48.834;9.132;2023-04-08T13:36:14;98646.78;;;12.45;56.06
15694;BME280;7947;48.834;9.132;2023-04-08T13:39:17;98644.66;;;12.42;56.31
15694;BME280;7947;48.834;9.132;2023-04-08T13:42:19;98650.31;;;12.30;56.51
15694;BME280;7947;48.834;9.132;2023-04-08T13:45:24;98654.91;;;12.25;57.99
15694;BME280;7947;48.834;9.132;2023-04-08T13:48:27;98646.59;;;12.21;58.76
15694;BME280;7947;48.834;9.132;2023-04-08T13:51:29;98648.22;;;12.17;58.56
15694;BME280;7947;48.834;9.132;2023-04-08T13:54:32;98651.16;;;12.21;58.49
15694;BME280;7947;48.834;9.132;2023-04-08T13:57:35;98642.78;;;12.27;58.24
15694;BME280;7947;48.834;9.132;2023-04-08T14:00:39;98640.91;;;12.33;58.53
15694;BME280;7947;48.834;9.132;2023-04-08T14:03:42;98647.88;;;12.39;58.08
15694;BME280;7947;48.834;9.132;2023-04-08T14:06:45;98645.69;;;12.51;59.09
15694;BME280;7947;48.834;9.132;2023-04-08T14:09:48;98641.63;;;12.58;55.98
15694;BME280;7947;48.834;9.132;2023-04-08T14:12:50;98641.31;;;12.70;56.80
15694;BME280;7947;48.834;9.132;2023-04-08T14:15:54;98649.59;;;12.84;56.66
15694;BME280;7947;48.834;9.132;2023-04-08T14:18:59;98649.00;;;12.97;56.77
15694;BME280;7947;48.834;9.132;2023-04-08T14:22:01;98643.03;;;13.05;56.65
15694;BME280;7947;48.834;9.132;2023-04-08T14:25:05;98641.47;;;13.04;55.66
15694;BME280;7947;48.834;9.132;2023-04-08T14:28:08;98641.97;;;13.06;57.25
15694;BME280;7947;48.834;9.132;2023-04-08T14:31:12;98644.91;;;13.09;55.40
15694;BME280;7947;48.834;9.132;2023-04-08T14:34:15;98644.69;;;13.06;56.57
15694;BME280;7947;48.834;9.132;2023-04-08T14:37:18;98643.88;;;13.00;57.31
15694;BME280;7947;48.834;9.132;2023-04-08T14:40:21;98651.94;;;13.00;56.24
15694;BME280;7947;48.834;9.132;2023-04-08T14:43:24;98652.47;;;13.02;55.89
15694;BME280;7947;48.834;9.132;2023-04-08T14:46:28;98652.47;;;12.97;55.62
15694;BME280;7947;48.834;9.132;2023-04-08T14:49:31;98655.22;;;12.92;55.04
15694;BME280;7947;48.834;9.132;2023-04-08T14:52:34;98653.91;;;12.85;55.94
15694;BME280;7947;48.834;9.132;2023-04-08T14:55:37;98652.56;;;12.82;55.48
15694;BME280;7947;48.834;9.132;2023-04-08T14:58:40;98657.97;;;12.72;55.66
15694;BME280;7947;48.834;9.132;2023-04-08T15:01:44;98664.78;;;12.59;56.32
15694;BME280;7947;48.834;9.132;2023-04-08T15:04:47;98659.94;;;12.51;55.48
15694;BME280;7947;48.834;9.132;2023-04-08T15:07:50;98667.50;;;12.44;56.50
15694;BME280;7947;48.834;9.132;2023-04-08T15:10:53;98664.81;;;12.39;55.60
15694;BME280;7947;48.834;9.132;2023-04-08T15:13:56;98662.16;;;12.34;56.03
15694;BME280;7947;48.834;9.132;2023-04-08T15:17:00;98667.78;;;12.38;55.76
15694;BME280;7947;48.834;9.132;2023-04-08T15:20:04;98666.97;;;12.37;54.69
15694;BME280;7947;48.834;9.132;2023-04-08T15:23:06;98673.41;;;12.41;55.69
15694;BME280;7947;48.834;9.132;2023-04-08T15:26:09;98670.19;;;12.39;55.61
15694;BME280;7947;48.834;9.132;2023-04-08T15:29:12;98675.03;;;12.37;55.96
15694;BME280;7947;48.834;9.132;2023-04-08T15:32:16;98671.31;;;12.28;56.95
15694;BME280;7947;48.834;9.132;2023-04-08T15:35:19;98675.09;;;12.17;56.10
15694;BME280;7947;48.834;9.132;2023-04-08T15:38:22;98685.03;;;12.12;57.09
15694;BME280;7947;48.834;9.132;2023-04-08T15:41:25;98676.72;;;12.13;57.59
15694;BME280;7947;48.834;9.132;2023-04-08T15:44:29;98668.66;;;12.13;56.39
15694;BME280;7947;48.834;9.132;2023-04-08T15:47:34;98676.97;;;12.07;57.38
15694;BME280;7947;48.834;9.132;2023-04-08T15:50:37;98674.03;;;11.98;58.53
15694;BME280;7947;48.834;9.132;2023-04-08T15:53:40;98681.56;;;12.01;58.70
15694;BME280;7947;48.834;9.132;2023-04-08T15:56:43;98679.94;;;12.00;58.43
15694;BME280;7947;48.834;9.132;2023-04-08T15:59:47;98685.31;;;11.95;58.83
15694;BME280;7947;48.834;9.132;2023-04-08T16:02:51;98686.13;;;12.01;59.55
15694;BME280;7947;48.834;9.132;2023-04-08T16:05:54;98691.25;;;11.97;58.93
15694;BME280;7947;48.834;9.132;2023-04-08T16:08:57;98687.75;;;11.92;58.80
15694;BME280;7947;48.834;9.132;2023-04-08T16:12:00;98688.00;;;11.85;59.07
15694;BME280;7947;48.834;9.132;2023-04-08T16:15:04;98693.66;;;11.78;59.07
15694;BME280;7947;48.834;9.132;2023-04-08T16:18:08;98696.88;;;11.75;59.44
15694;BME280;7947;48.834;9.132;2023-04-08T16:21:11;98703.06;;;11.81;60.20
15694;BME280;7947;48.834;9.132;2023-04-08T16:24:14;98703.06;;;11.81;59.75
15694;BME280;7947;48.834;9.132;2023-04-08T16:27:17;98701.72;;;11.78;59.70
15694;BME280;7947;48.834;9.132;2023-04-08T16:30:19;98707.38;;;11.82;60.17
15694;BME280;7947;48.834;9.132;2023-04-08T16:33:24;98703.88;;;11.82;60.73